createdAt,value
2022-12-04T00:01:06.573Z,4.90
2022-12-04T00:03:33.890Z,4.90
2022-12-04T00:06:11.575Z,4.90
2022-12-04T00:08:38.531Z,4.90
2022-12-04T00:11:07.045Z,5.00
2022-12-04T00:13:34.601Z,5.00
2022-12-04T00:16:03.861Z,5.00
2022-12-04T00:18:30.719Z,5.00
2022-12-04T00:20:57.511Z,5.00
2022-12-04T00:23:24.371Z,4.90
2022-12-04T00:25:53.401Z,4.90
2022-12-04T00:28:20.355Z,4.90
2022-12-04T00:30:47.564Z,4.90
2022-12-04T00:33:14.476Z,4.80
2022-12-04T00:35:41.647Z,4.80
2022-12-04T00:38:08.493Z,4.80
2022-12-04T00:40:35.332Z,4.80
2022-12-04T00:43:02.312Z,4.70
2022-12-04T00:45:29.331Z,4.70
2022-12-04T00:47:56.189Z,4.70
2022-12-04T00:50:23.021Z,4.70
2022-12-04T00:52:49.892Z,4.70
2022-12-04T00:55:16.795Z,4.60
2022-12-04T00:57:43.659Z,4.60
2022-12-04T01:00:10.950Z,4.60
2022-12-04T01:02:37.832Z,4.70
2022-12-04T01:05:05.011Z,4.70
2022-12-04T01:07:31.908Z,4.70
2022-12-04T01:09:58.772Z,4.70
2022-12-04T01:12:25.599Z,4.70
2022-12-04T01:14:52.481Z,4.70
2022-12-04T01:17:19.323Z,4.70
2022-12-04T01:19:46.258Z,4.70
2022-12-04T01:22:13.119Z,4.80
2022-12-04T01:24:39.970Z,4.90
2022-12-04T01:27:06.820Z,4.90
2022-12-04T01:29:33.766Z,4.90
2022-12-04T01:32:00.709Z,4.90
2022-12-04T01:34:27.749Z,4.90
2022-12-04T01:36:54.585Z,4.90
2022-12-04T01:39:21.593Z,5.00
2022-12-04T01:41:48.802Z,5.00
2022-12-04T01:44:20.395Z,5.00
2022-12-04T01:46:52.262Z,5.00
2022-12-04T01:49:38.142Z,5.10
2022-12-04T01:52:18.614Z,5.10
2022-12-04T01:54:49.881Z,5.00
2022-12-04T01:57:19.199Z,5.00
2022-12-04T01:59:53.525Z,5.00
2022-12-04T02:02:26.774Z,4.90
2022-12-04T02:04:54.310Z,4.90
2022-12-04T02:07:21.197Z,4.90
2022-12-04T02:09:54.124Z,4.80
2022-12-04T02:12:55.615Z,4.80
2022-12-04T02:15:37.487Z,4.70
2022-12-04T02:18:24.800Z,4.70
2022-12-04T02:20:57.534Z,4.60
2022-12-04T02:23:49.357Z,4.60
2022-12-04T02:26:49.258Z,4.60
2022-12-04T02:29:32.862Z,4.60
2022-12-04T02:32:05.979Z,4.60
2022-12-04T02:34:44.712Z,4.60
2022-12-04T02:37:18.295Z,4.50
2022-12-04T02:39:59.067Z,4.50
2022-12-04T02:42:42.913Z,4.40
2022-12-04T02:45:18.581Z,4.40
2022-12-04T02:47:46.543Z,4.40
2022-12-04T02:50:17.419Z,4.40
2022-12-04T02:52:57.725Z,4.30
2022-12-04T02:55:31.526Z,4.30
2022-12-04T02:58:03.309Z,4.30
2022-12-04T03:00:32.050Z,4.30
2022-12-04T03:03:03.988Z,4.30
2022-12-04T03:05:41.502Z,4.30
2022-12-04T03:08:13.635Z,4.20
2022-12-04T03:10:54.365Z,4.10
2022-12-04T03:13:36.241Z,4.00
2022-12-04T03:16:31.639Z,3.90
2022-12-04T03:19:19.905Z,3.90
2022-12-04T03:21:54.082Z,3.90
2022-12-04T03:24:29.313Z,3.80
2022-12-04T03:26:59.183Z,3.80
2022-12-04T03:30:00.736Z,3.80
2022-12-04T03:32:53.864Z,3.80
2022-12-04T03:36:06.817Z,3.80
2022-12-04T03:38:49.118Z,3.80
2022-12-04T03:41:49.479Z,3.80
2022-12-04T03:44:29.458Z,3.70
2022-12-04T03:47:06.423Z,3.70
2022-12-04T03:50:24.685Z,3.70
2022-12-04T03:53:00.027Z,3.60
2022-12-04T03:55:49.095Z,3.60
2022-12-04T03:58:22.837Z,3.60
2022-12-04T04:00:53.217Z,3.60
2022-12-04T04:03:34.144Z,3.60
2022-12-04T04:06:14.004Z,3.60
2022-12-04T04:08:43.500Z,3.60
2022-12-04T04:11:19.243Z,3.70
2022-12-04T04:14:25.566Z,3.70
2022-12-04T04:17:17.749Z,3.70
2022-12-04T04:20:09.108Z,3.80
2022-12-04T04:22:56.320Z,3.80
2022-12-04T04:25:25.861Z,3.90
2022-12-04T04:27:57.516Z,3.90
2022-12-04T04:30:25.039Z,3.90
2022-12-04T04:33:00.183Z,3.90
2022-12-04T04:35:44.078Z,3.90
2022-12-04T04:38:25.091Z,4.00
2022-12-04T04:41:01.033Z,4.00
2022-12-04T04:43:52.179Z,4.00
2022-12-04T04:46:29.994Z,4.00
2022-12-04T04:49:01.242Z,4.00
2022-12-04T04:51:30.195Z,4.10
2022-12-04T04:53:59.552Z,4.10
2022-12-04T04:56:26.875Z,4.20
2022-12-04T04:58:53.795Z,4.20
2022-12-04T05:01:24.562Z,4.20
2022-12-04T05:03:51.449Z,4.20
2022-12-04T05:06:18.605Z,4.20
2022-12-04T05:08:45.659Z,4.10
2022-12-04T05:11:14.659Z,4.10
2022-12-04T05:13:41.858Z,4.00
2022-12-04T05:16:13.123Z,4.00
2022-12-04T05:18:40.250Z,4.00
2022-12-04T05:21:18.425Z,3.90
2022-12-04T05:23:45.251Z,3.80
2022-12-04T05:26:12.135Z,3.80
2022-12-04T05:28:40.889Z,3.70
2022-12-04T05:31:07.950Z,3.70
2022-12-04T05:33:34.830Z,3.60
2022-12-04T05:36:04.596Z,3.60
2022-12-04T05:38:32.364Z,3.60
2022-12-04T05:41:00.671Z,3.60
2022-12-04T05:43:27.934Z,3.60
2022-12-04T05:45:55.041Z,3.50
2022-12-04T05:48:21.889Z,3.50
2022-12-04T05:50:48.695Z,3.50
2022-12-04T05:53:15.856Z,3.50
2022-12-04T05:55:42.698Z,3.50
2022-12-04T05:58:09.907Z,3.50
2022-12-04T06:00:36.902Z,3.50
2022-12-04T06:03:04.123Z,3.40
2022-12-04T06:05:32.987Z,3.40
2022-12-04T06:07:59.921Z,3.40
2022-12-04T06:10:26.815Z,3.40
2022-12-04T06:12:57.735Z,3.40
2022-12-04T06:15:24.993Z,3.40
2022-12-04T06:17:51.866Z,3.40
2022-12-04T06:20:19.202Z,3.50
2022-12-04T06:22:46.058Z,3.50
2022-12-04T06:25:12.910Z,3.40
2022-12-04T06:27:39.836Z,3.40
2022-12-04T06:30:07.406Z,3.40
2022-12-04T06:32:34.257Z,3.40
2022-12-04T06:35:01.910Z,3.50
2022-12-04T06:37:30.067Z,3.50
2022-12-04T06:39:57.198Z,3.50
2022-12-04T06:42:24.329Z,3.60
2022-12-04T06:44:51.154Z,3.60
2022-12-04T06:47:18.107Z,3.60
2022-12-04T06:49:46.179Z,3.60
2022-12-04T06:52:12.985Z,3.70
2022-12-04T06:54:39.803Z,3.70
2022-12-04T06:57:08.552Z,3.70
2022-12-04T06:59:36.147Z,3.70
2022-12-04T07:02:02.996Z,3.70
2022-12-04T07:04:29.822Z,3.70
2022-12-04T07:06:56.737Z,3.70
2022-12-04T07:09:23.564Z,3.80
2022-12-04T07:11:50.394Z,3.80
2022-12-04T07:14:17.275Z,3.80
2022-12-04T07:16:44.236Z,3.80
2022-12-04T07:19:13.014Z,3.80
2022-12-04T07:21:40.318Z,3.80
2022-12-04T07:24:07.287Z,3.90
2022-12-04T07:26:34.158Z,3.90
2022-12-04T07:29:01.024Z,4.00
2022-12-04T07:31:30.167Z,4.10
2022-12-04T07:33:57.864Z,4.20
2022-12-04T07:36:25.914Z,4.20
2022-12-04T07:38:52.755Z,4.40
2022-12-04T07:41:20.217Z,4.50
2022-12-04T07:43:47.177Z,4.70
2022-12-04T07:46:20.262Z,4.80
2022-12-04T07:48:47.333Z,4.90
2022-12-04T07:51:19.964Z,5.00
2022-12-04T07:53:47.219Z,5.10
2022-12-04T07:56:14.999Z,5.10
2022-12-04T07:58:42.573Z,5.20
2022-12-04T08:01:14.150Z,5.20
2022-12-04T08:03:47.553Z,5.30
2022-12-04T08:06:16.869Z,5.30
2022-12-04T08:08:43.906Z,5.40
2022-12-04T08:11:13.293Z,5.40
2022-12-04T08:13:40.419Z,5.40
2022-12-04T08:16:09.092Z,5.50
2022-12-04T08:18:36.147Z,5.50
2022-12-04T08:21:05.723Z,5.50
2022-12-04T08:23:32.788Z,5.50
2022-12-04T08:26:01.209Z,5.50
2022-12-04T08:28:28.987Z,5.50
2022-12-04T08:31:01.759Z,5.50
2022-12-04T08:33:28.707Z,5.50
2022-12-04T08:35:55.506Z,5.50
2022-12-04T08:38:22.330Z,5.60
2022-12-04T08:40:49.368Z,5.70
2022-12-04T08:43:16.209Z,5.70
2022-12-04T08:45:43.160Z,5.70
2022-12-04T08:48:10.027Z,5.80
2022-12-04T08:50:36.892Z,5.90
2022-12-04T08:53:03.743Z,5.80
2022-12-04T08:55:47.480Z,5.80
2022-12-04T08:58:14.760Z,5.80
2022-12-04T09:00:41.763Z,5.90
2022-12-04T09:03:13.350Z,5.80
2022-12-04T09:05:42.718Z,5.90
2022-12-04T09:08:10.086Z,5.90
2022-12-04T09:10:37.706Z,5.90
2022-12-04T09:13:05.836Z,5.90
2022-12-04T09:15:33.491Z,5.80
2022-12-04T09:18:00.690Z,5.70
2022-12-04T09:20:27.964Z,5.60
2022-12-04T09:23:05.025Z,5.60
2022-12-04T09:25:37.187Z,5.70
2022-12-04T09:28:05.067Z,5.70
2022-12-04T09:30:32.278Z,5.70
2022-12-04T09:33:03.367Z,5.90
2022-12-04T09:35:30.340Z,6.10
2022-12-04T09:37:57.879Z,6.30
2022-12-04T09:40:37.645Z,6.50
2022-12-04T09:43:31.014Z,6.50
2022-12-04T09:46:08.957Z,6.70
2022-12-04T09:48:42.374Z,6.70
2022-12-04T09:51:18.839Z,6.90
2022-12-04T09:53:56.172Z,7.10
2022-12-04T09:56:28.081Z,7.30
2022-12-04T09:59:11.736Z,7.40
2022-12-04T10:01:52.130Z,7.30
2022-12-04T10:04:19.783Z,7.50
2022-12-04T10:07:07.905Z,7.40
2022-12-04T10:09:57.050Z,7.40
2022-12-04T10:12:37.875Z,7.60
2022-12-04T10:15:18.727Z,7.70
2022-12-04T10:17:54.652Z,7.70
2022-12-04T10:20:50.977Z,7.80
2022-12-04T10:23:42.531Z,7.70
2022-12-04T10:26:16.261Z,7.70
2022-12-04T10:28:55.831Z,7.80
2022-12-04T10:31:25.041Z,7.90
2022-12-04T10:33:53.660Z,8.00
2022-12-04T10:36:24.015Z,8.10
2022-12-04T10:39:02.456Z,8.10
2022-12-04T10:41:39.336Z,8.10
2022-12-04T10:44:06.531Z,8.00
2022-12-04T10:46:35.077Z,8.00
2022-12-04T10:49:33.543Z,8.20
2022-12-04T10:52:00.567Z,8.30
2022-12-04T10:54:27.367Z,8.40
2022-12-04T10:57:00.412Z,8.50
2022-12-04T10:59:28.861Z,8.40
2022-12-04T11:02:12.217Z,8.40
2022-12-04T11:04:42.030Z,8.40
2022-12-04T11:07:19.290Z,8.40
2022-12-04T11:10:17.909Z,8.30
2022-12-04T11:12:55.515Z,8.30
2022-12-04T11:15:23.333Z,8.30
2022-12-04T11:17:50.249Z,8.30
2022-12-04T11:20:23.278Z,8.40
2022-12-04T11:22:55.124Z,8.40
2022-12-04T11:25:24.574Z,8.40
2022-12-04T11:28:00.036Z,8.30
2022-12-04T11:30:34.172Z,8.20
2022-12-04T11:33:01.889Z,8.20
2022-12-04T11:35:33.141Z,8.20
2022-12-04T11:38:18.593Z,8.30
2022-12-04T11:40:54.330Z,8.30
2022-12-04T11:43:25.107Z,8.40
2022-12-04T11:46:02.107Z,8.50
2022-12-04T11:48:31.268Z,8.60
2022-12-04T11:51:36.352Z,8.60
2022-12-04T11:54:29.742Z,8.60
2022-12-04T11:57:11.822Z,8.60
2022-12-04T12:00:01.338Z,8.70
2022-12-04T12:02:38.243Z,8.70
2022-12-04T12:05:23.840Z,8.70
2022-12-04T12:08:02.870Z,8.70
2022-12-04T12:10:54.297Z,8.80
2022-12-04T12:13:30.131Z,8.80
2022-12-04T12:16:02.868Z,8.80
2022-12-04T12:18:40.557Z,8.70
2022-12-04T12:21:16.690Z,8.70
2022-12-04T12:24:11.484Z,8.80
2022-12-04T12:26:59.036Z,8.80
2022-12-04T12:29:43.670Z,8.80
2022-12-04T12:32:22.862Z,8.80
2022-12-04T12:34:51.545Z,8.80
2022-12-04T12:37:25.714Z,8.90
2022-12-04T12:40:11.564Z,8.90
2022-12-04T12:42:58.252Z,8.90
2022-12-04T12:45:40.928Z,8.90
2022-12-04T12:48:16.072Z,9.00
2022-12-04T12:53:42.585Z,9.00
2022-12-04T12:56:13.201Z,9.00
2022-12-04T12:58:49.298Z,9.00
2022-12-04T13:01:23.081Z,9.10
2022-12-04T13:03:55.763Z,9.10
2022-12-04T13:06:32.070Z,9.10
2022-12-04T13:09:27.647Z,9.00
2022-12-04T13:12:01.698Z,9.00
2022-12-04T13:14:28.560Z,9.10
2022-12-04T13:17:08.580Z,9.10
2022-12-04T13:19:45.906Z,9.10
2022-12-04T13:22:28.825Z,9.10
2022-12-04T13:25:25.137Z,9.10
2022-12-04T13:28:39.974Z,9.00
2022-12-04T13:31:21.588Z,8.90
2022-12-04T13:33:54.748Z,8.90
2022-12-04T13:36:39.437Z,8.90
2022-12-04T13:39:38.414Z,8.90
2022-12-04T13:42:06.957Z,8.90
2022-12-04T13:44:36.536Z,8.80
2022-12-04T13:47:06.832Z,8.80
2022-12-04T13:49:42.207Z,8.80
2022-12-04T13:52:37.043Z,8.80
2022-12-04T13:55:04.104Z,8.70
2022-12-04T13:57:30.940Z,8.70
2022-12-04T14:00:24.512Z,8.70
2022-12-04T14:02:54.251Z,8.70
2022-12-04T14:05:42.672Z,8.60
2022-12-04T14:08:28.431Z,8.60
2022-12-04T14:11:03.530Z,8.50
2022-12-04T14:13:57.406Z,8.50
2022-12-04T14:16:41.416Z,8.40
2022-12-04T14:19:10.413Z,8.40
2022-12-04T14:21:45.186Z,8.40
2022-12-04T14:24:37.443Z,8.30
2022-12-04T14:27:42.146Z,8.30
2022-12-04T14:30:20.597Z,8.30
2022-12-04T14:32:50.896Z,8.30
2022-12-04T14:35:22.393Z,8.30
2022-12-04T14:38:01.942Z,8.30
2022-12-04T14:40:59.386Z,8.30
2022-12-04T14:43:31.474Z,8.20
2022-12-04T14:46:23.013Z,8.20
2022-12-04T14:49:04.999Z,8.20
2022-12-04T14:51:37.327Z,8.20
2022-12-04T14:54:29.312Z,8.30
2022-12-04T14:57:22.859Z,8.20
2022-12-04T14:59:52.304Z,8.10
2022-12-04T15:02:23.441Z,8.10
2022-12-04T15:04:51.547Z,8.10
2022-12-04T15:07:20.919Z,8.10
2022-12-04T15:10:18.480Z,8.10
2022-12-04T15:12:51.427Z,8.10
2022-12-04T15:15:25.479Z,8.10
2022-12-04T15:18:19.588Z,8.10
2022-12-04T15:20:50.474Z,8.00
2022-12-04T15:23:34.874Z,8.00
2022-12-04T15:26:07.197Z,8.00
2022-12-04T15:28:55.474Z,7.90
2022-12-04T15:31:35.546Z,7.90
2022-12-04T15:34:08.585Z,7.90
2022-12-04T15:36:48.272Z,7.90
2022-12-04T15:39:30.172Z,7.80
2022-12-04T15:42:15.103Z,7.80
2022-12-04T15:45:04.096Z,7.80
2022-12-04T15:47:41.810Z,7.80
2022-12-04T15:50:17.329Z,7.80
2022-12-04T15:52:57.584Z,7.70
2022-12-04T15:55:26.436Z,7.80
2022-12-04T15:57:58.008Z,7.80
2022-12-04T16:00:29.995Z,7.80
2022-12-04T16:02:58.731Z,7.80
2022-12-04T16:05:35.476Z,7.80
2022-12-04T16:08:25.533Z,7.80
2022-12-04T16:10:58.523Z,7.80
2022-12-04T16:13:35.513Z,7.80
2022-12-04T16:16:07.851Z,7.80
2022-12-04T16:18:35.541Z,7.80
2022-12-04T16:21:02.476Z,7.80
2022-12-04T16:23:29.433Z,7.80
2022-12-04T16:25:56.570Z,7.80
2022-12-04T16:28:24.011Z,7.80
2022-12-04T16:30:55.132Z,7.80
2022-12-04T16:33:24.708Z,7.80
2022-12-04T16:35:52.029Z,7.80
2022-12-04T16:38:19.327Z,7.80
2022-12-04T16:40:46.999Z,7.80
2022-12-04T16:43:15.962Z,7.80
2022-12-04T16:45:48.497Z,7.80
2022-12-04T16:48:16.125Z,7.80
2022-12-04T16:50:45.523Z,7.80
2022-12-04T16:53:18.587Z,7.80
2022-12-04T16:55:49.743Z,7.80
2022-12-04T16:58:18.783Z,7.80
2022-12-04T17:00:54.640Z,7.80
2022-12-04T17:03:28.992Z,7.80
2022-12-04T17:05:57.258Z,7.80
2022-12-04T17:08:24.802Z,7.70
2022-12-04T17:10:52.740Z,7.70
2022-12-04T17:13:21.674Z,7.70
2022-12-04T17:15:49.381Z,7.70
2022-12-04T17:18:20.991Z,7.70
2022-12-04T17:20:49.036Z,7.70
2022-12-04T17:23:16.459Z,7.70
2022-12-04T17:25:44.314Z,7.70
2022-12-04T17:28:12.328Z,7.70
2022-12-04T17:30:39.689Z,7.70
2022-12-04T17:33:06.579Z,7.70
2022-12-04T17:35:33.805Z,7.70
2022-12-04T17:38:05.907Z,7.70
2022-12-04T17:40:34.530Z,7.70
2022-12-04T17:43:02.112Z,7.60
2022-12-04T17:45:32.205Z,7.60
2022-12-04T17:48:01.274Z,7.60
2022-12-04T17:50:28.759Z,7.60
2022-12-04T17:52:56.499Z,7.60
2022-12-04T17:55:25.777Z,7.60
2022-12-04T17:57:54.905Z,7.60
2022-12-04T18:00:21.918Z,7.60
2022-12-04T18:02:53.203Z,7.60
2022-12-04T18:05:21.594Z,7.60
2022-12-04T18:07:48.622Z,7.60
2022-12-04T18:10:18.424Z,7.60
2022-12-04T18:12:45.710Z,7.70
2022-12-04T18:15:13.684Z,7.70
2022-12-04T18:17:40.589Z,7.70
2022-12-04T18:20:09.344Z,7.70
2022-12-04T18:22:37.834Z,7.70
2022-12-04T18:25:06.251Z,7.70
2022-12-04T18:27:36.645Z,7.60
2022-12-04T18:30:08.103Z,7.70
2022-12-04T18:32:35.064Z,7.70
2022-12-04T18:35:02.315Z,7.70
2022-12-04T18:37:29.200Z,7.70
2022-12-04T18:39:56.746Z,7.70
2022-12-04T18:42:25.521Z,7.70
2022-12-04T18:44:56.698Z,7.70
2022-12-04T18:47:24.325Z,7.70
2022-12-04T18:49:52.584Z,7.60
2022-12-04T18:52:19.948Z,7.60
2022-12-04T18:54:48.082Z,7.70
2022-12-04T18:57:15.438Z,7.70
2022-12-04T18:59:43.311Z,7.70
2022-12-04T19:02:11.243Z,7.70
2022-12-04T19:04:38.746Z,7.70
2022-12-04T19:07:05.901Z,7.70
2022-12-04T19:10:09.590Z,7.70
2022-12-04T19:12:20.589Z,7.60
2022-12-04T19:14:47.940Z,7.70
2022-12-04T19:17:15.701Z,7.60
2022-12-04T19:19:43.651Z,7.70
2022-12-04T19:22:11.100Z,7.60
2022-12-04T19:24:38.522Z,7.60
2022-12-04T19:27:12.097Z,7.60
2022-12-04T19:29:41.983Z,7.60
2022-12-04T19:32:11.839Z,7.60
2022-12-04T19:34:39.838Z,7.60
2022-12-04T19:37:07.914Z,7.60
2022-12-04T19:39:44.244Z,7.60
2022-12-04T19:42:11.758Z,7.50
2022-12-04T19:44:48.261Z,7.60
2022-12-04T19:47:16.495Z,7.60
2022-12-04T19:49:44.220Z,7.50
2022-12-04T19:52:12.413Z,7.50
2022-12-04T19:54:39.891Z,7.50
2022-12-04T19:57:07.313Z,7.50
2022-12-04T19:59:37.725Z,7.50
2022-12-04T20:02:06.531Z,7.40
2022-12-04T20:04:34.996Z,7.40
2022-12-04T20:07:02.360Z,7.40
2022-12-04T20:09:30.810Z,7.30
2022-12-04T20:11:59.797Z,7.30
2022-12-04T20:14:27.272Z,7.30
2022-12-04T20:16:56.153Z,7.20
2022-12-04T20:19:24.043Z,7.20
2022-12-04T20:21:56.155Z,7.20
2022-12-04T20:24:26.661Z,7.20
2022-12-04T20:26:54.028Z,7.20
2022-12-04T20:29:22.185Z,7.20
2022-12-04T20:31:49.670Z,7.20
2022-12-04T20:34:19.036Z,7.20
2022-12-04T20:36:48.511Z,7.20
2022-12-04T20:39:17.797Z,7.10
2022-12-04T20:41:45.369Z,7.10
2022-12-04T20:44:18.471Z,7.10
2022-12-04T20:46:47.270Z,7.10
2022-12-04T20:49:21.054Z,7.10
2022-12-04T20:51:50.351Z,7.00
2022-12-04T20:54:24.697Z,7.00
2022-12-04T20:56:54.532Z,7.00
2022-12-04T20:59:22.813Z,7.00
2022-12-04T21:01:50.688Z,6.90
2022-12-04T21:04:18.683Z,6.90
2022-12-04T21:06:47.465Z,7.00
2022-12-04T21:09:18.003Z,7.00
2022-12-04T21:11:56.310Z,7.00
2022-12-04T21:14:43.189Z,6.90
2022-12-04T21:17:17.018Z,7.00
2022-12-04T21:19:45.467Z,7.00
2022-12-04T21:22:13.543Z,6.90
2022-12-04T21:24:42.586Z,6.90
2022-12-04T21:27:13.392Z,6.90
2022-12-04T21:29:44.252Z,6.80
2022-12-04T21:32:11.306Z,6.80
2022-12-04T21:34:38.142Z,6.80
2022-12-04T21:37:05.288Z,6.80
2022-12-04T21:39:32.762Z,6.80
2022-12-04T21:42:18.081Z,6.80
2022-12-04T21:44:44.876Z,6.80
2022-12-04T21:47:11.759Z,6.80
2022-12-04T21:49:38.663Z,6.80
2022-12-04T21:52:05.516Z,6.70
2022-12-04T21:54:32.372Z,6.70
2022-12-04T21:56:59.433Z,6.70
2022-12-04T21:59:26.659Z,6.70
2022-12-04T22:01:54.128Z,6.70
2022-12-04T22:04:22.116Z,6.70
2022-12-04T22:06:49.383Z,6.70
2022-12-04T22:09:16.915Z,6.70
2022-12-04T22:11:44.632Z,6.70
2022-12-04T22:14:12.611Z,6.70
2022-12-04T22:16:42.776Z,6.70
2022-12-04T22:19:11.908Z,6.70
2022-12-04T22:21:39.750Z,6.70
2022-12-04T22:24:07.144Z,6.60
2022-12-04T22:26:33.998Z,6.60
2022-12-04T22:29:01.055Z,6.60
2022-12-04T22:31:29.656Z,6.60
2022-12-04T22:33:59.242Z,6.70
2022-12-04T22:36:29.012Z,6.70
2022-12-04T22:39:09.421Z,6.60
2022-12-04T22:41:37.613Z,6.60
2022-12-04T22:44:05.465Z,6.60
2022-12-04T22:46:32.604Z,6.60
2022-12-04T22:49:00.065Z,6.60
2022-12-04T22:51:27.454Z,6.60
2022-12-04T22:53:57.905Z,6.50
2022-12-04T22:56:27.913Z,6.50
2022-12-04T22:58:55.781Z,6.50
2022-12-04T23:01:26.040Z,6.50
2022-12-04T23:03:54.058Z,6.50
2022-12-04T23:06:24.077Z,6.50
2022-12-04T23:09:06.088Z,6.50
2022-12-04T23:11:33.200Z,6.50
2022-12-04T23:14:02.416Z,6.50
2022-12-04T23:16:31.424Z,6.50
2022-12-04T23:18:59.646Z,6.50
2022-12-04T23:21:27.606Z,6.40
2022-12-04T23:23:55.599Z,6.40
2022-12-04T23:26:29.406Z,6.40
2022-12-04T23:28:57.446Z,6.40
2022-12-04T23:31:24.816Z,6.40
2022-12-04T23:33:51.993Z,6.40
2022-12-04T23:36:18.878Z,6.40
2022-12-04T23:38:46.329Z,6.40
2022-12-04T23:41:18.009Z,6.30
2022-12-04T23:43:45.530Z,6.30
2022-12-04T23:46:14.318Z,6.30
2022-12-04T23:48:42.779Z,6.30
2022-12-04T23:51:11.509Z,6.30
2022-12-04T23:53:38.997Z,6.30
2022-12-04T23:56:11.395Z,6.30
2022-12-04T23:58:39.405Z,6.30
